createdAt,value
2023-01-13T00:02:22.257Z,100692.81
2023-01-13T00:05:26.703Z,100699.03
2023-01-13T00:08:29.739Z,100694.66
2023-01-13T00:11:32.518Z,100692.25
2023-01-13T00:14:36.468Z,100686.81
2023-01-13T00:17:39.430Z,100689.41
2023-01-13T00:20:42.191Z,100688.75
2023-01-13T00:23:45.446Z,100694.59
2023-01-13T00:26:48.516Z,100678.00
2023-01-13T00:29:51.308Z,100678.59
2023-01-13T00:32:54.073Z,100679.28
2023-01-13T00:36:01.867Z,100675.13
2023-01-13T00:39:04.673Z,100668.28
2023-01-13T00:42:26.439Z,100675.03
2023-01-13T00:45:29.307Z,100679.12
2023-01-13T00:48:32.933Z,100683.06
2023-01-13T00:51:35.833Z,100681.81
2023-01-13T00:54:38.628Z,100681.88
2023-01-13T00:57:41.412Z,100673.03
2023-01-13T01:00:45.873Z,100675.03
2023-01-13T01:03:52.290Z,100680.66
2023-01-13T01:06:55.087Z,100670.13
2023-01-13T01:09:58.064Z,100672.81
2023-01-13T01:13:01.008Z,100668.56
2023-01-13T01:16:09.014Z,100662.50
2023-01-13T01:19:12.022Z,100666.97
2023-01-13T01:22:16.137Z,100658.91
2023-01-13T01:25:18.904Z,100653.09
2023-01-13T01:28:21.734Z,100659.59
2023-01-13T01:31:31.542Z,100660.50
2023-01-13T01:34:34.370Z,100654.84
2023-01-13T01:37:37.200Z,100654.84
2023-01-13T01:40:40.051Z,100656.44
2023-01-13T01:44:03.859Z,100651.84
2023-01-13T01:47:07.124Z,100642.12
2023-01-13T01:50:10.668Z,100637.56
2023-01-13T01:53:16.150Z,100638.44
2023-01-13T01:56:20.021Z,100636.28
2023-01-13T01:59:24.011Z,100641.56
2023-01-13T02:02:29.003Z,100632.50
2023-01-13T02:05:34.307Z,100631.53
2023-01-13T02:08:39.067Z,100628.16
2023-01-13T02:12:00.923Z,100625.47
2023-01-13T02:15:13.253Z,100633.22
2023-01-13T02:18:16.260Z,100631.41
2023-01-13T02:22:09.552Z,100623.78
2023-01-13T02:25:48.827Z,100626.22
2023-01-13T02:29:36.196Z,100627.00
2023-01-13T02:32:56.195Z,100623.72
2023-01-13T02:36:06.624Z,100611.94
2023-01-13T02:39:21.521Z,100604.19
2023-01-13T02:42:49.612Z,100602.66
2023-01-13T02:46:18.057Z,100607.81
2023-01-13T02:49:53.595Z,100615.53
2023-01-13T02:53:01.320Z,100606.00
2023-01-13T02:56:06.132Z,100606.59
2023-01-13T02:59:10.064Z,100616.91
2023-01-13T03:02:16.761Z,100603.91
2023-01-13T03:05:20.185Z,100603.81
2023-01-13T03:08:39.801Z,100595.25
2023-01-13T03:12:14.284Z,100590.91
2023-01-13T03:15:37.156Z,100596.94
2023-01-13T03:19:09.702Z,100585.75
2023-01-13T03:22:30.953Z,100589.22
2023-01-13T03:25:43.415Z,100588.09
2023-01-13T03:28:52.580Z,100582.94
2023-01-13T03:32:01.100Z,100587.28
2023-01-13T03:35:17.686Z,100588.66
2023-01-13T03:38:26.425Z,100584.44
2023-01-13T03:41:54.614Z,100580.16
2023-01-13T03:45:12.636Z,100577.31
2023-01-13T03:48:19.026Z,100570.06
2023-01-13T03:51:26.190Z,100572.53
2023-01-13T03:54:32.966Z,100573.53
2023-01-13T03:57:46.639Z,100569.16
2023-01-13T04:01:03.539Z,100567.75
2023-01-13T04:04:12.721Z,100568.63
2023-01-13T04:07:28.855Z,100570.22
2023-01-13T04:10:40.079Z,100577.34
2023-01-13T04:13:46.099Z,100576.94
2023-01-13T04:16:49.588Z,100587.47
2023-01-13T04:19:52.078Z,100574.69
2023-01-13T04:22:55.157Z,100575.66
2023-01-13T04:25:57.694Z,100571.44
2023-01-13T04:29:00.761Z,100578.34
2023-01-13T04:32:03.605Z,100580.06
2023-01-13T04:35:08.424Z,100589.87
2023-01-13T04:38:14.451Z,100589.09
2023-01-13T04:41:17.582Z,100592.59
2023-01-13T04:44:20.122Z,100591.50
2023-01-13T04:47:23.346Z,100583.38
2023-01-13T04:50:26.432Z,100590.31
2023-01-13T04:53:29.574Z,100580.81
2023-01-13T04:56:32.216Z,100583.00
2023-01-13T04:59:35.282Z,100584.38
2023-01-13T05:02:37.827Z,100586.84
2023-01-13T05:05:40.976Z,100589.91
2023-01-13T05:08:43.493Z,100587.28
2023-01-13T05:12:05.456Z,100591.56
2023-01-13T05:15:28.642Z,100590.19
2023-01-13T05:18:31.767Z,100588.78
2023-01-13T05:21:52.862Z,100597.78
2023-01-13T05:25:14.503Z,100605.56
2023-01-13T05:28:17.289Z,100604.75
2023-01-13T05:31:20.454Z,100600.94
2023-01-13T05:34:22.980Z,100602.59
2023-01-13T05:37:26.910Z,100607.88
2023-01-13T05:40:48.424Z,100607.88
2023-01-13T05:43:51.509Z,100607.00
2023-01-13T05:46:54.069Z,100604.53
2023-01-13T05:49:57.148Z,100606.94
2023-01-13T05:52:59.777Z,100598.69
2023-01-13T05:56:07.034Z,100607.22
2023-01-13T05:59:10.160Z,100602.47
2023-01-13T06:02:13.088Z,100606.16
2023-01-13T06:05:15.970Z,100602.00
2023-01-13T06:08:19.188Z,100615.66
2023-01-13T06:11:22.279Z,100612.91
2023-01-13T06:14:25.144Z,100596.72
2023-01-13T06:17:27.961Z,100612.22
2023-01-13T06:20:31.370Z,100607.75
2023-01-13T06:23:38.560Z,100612.00
2023-01-13T06:26:41.588Z,100617.84
2023-01-13T06:29:44.491Z,100611.09
2023-01-13T06:32:53.316Z,100620.81
2023-01-13T06:36:00.151Z,100622.53
2023-01-13T06:39:04.733Z,100613.84
2023-01-13T06:42:26.412Z,100615.44
2023-01-13T06:45:31.418Z,100608.97
2023-01-13T06:48:35.556Z,100625.44
2023-01-13T06:51:38.555Z,100622.53
2023-01-13T06:54:41.454Z,100633.53
2023-01-13T06:57:52.665Z,100637.84
2023-01-13T07:01:00.237Z,100622.91
2023-01-13T07:04:03.246Z,100632.50
2023-01-13T07:07:07.813Z,100628.50
2023-01-13T07:10:13.299Z,100633.72
2023-01-13T07:13:34.746Z,100638.81
2023-01-13T07:16:37.612Z,100638.44
2023-01-13T07:19:40.457Z,100640.53
2023-01-13T07:22:46.036Z,100640.47
2023-01-13T07:25:49.337Z,100628.78
2023-01-13T07:28:52.102Z,100630.94
2023-01-13T07:31:55.087Z,100628.28
2023-01-13T07:34:58.665Z,100641.31
2023-01-13T07:38:01.481Z,100630.09
2023-01-13T07:41:24.325Z,100636.28
2023-01-13T07:44:27.809Z,100633.37
2023-01-13T07:47:30.568Z,100636.84
2023-01-13T07:50:33.359Z,100642.12
2023-01-13T07:53:36.962Z,100644.50
2023-01-13T07:56:39.915Z,100648.38
2023-01-13T07:59:42.797Z,100642.75
2023-01-13T08:02:45.713Z,100646.50
2023-01-13T08:05:49.081Z,100655.03
2023-01-13T08:08:51.743Z,100652.00
2023-01-13T08:12:13.382Z,100660.41
2023-01-13T08:15:16.406Z,100669.56
2023-01-13T08:18:22.635Z,100674.44
2023-01-13T08:21:25.552Z,100672.13
2023-01-13T08:24:28.533Z,100658.03
2023-01-13T08:27:31.008Z,100675.28
2023-01-13T08:30:34.333Z,100675.00
2023-01-13T08:33:37.650Z,100671.69
2023-01-13T08:36:41.222Z,100678.06
2023-01-13T08:39:43.885Z,100678.28
2023-01-13T08:42:48.570Z,100682.56
2023-01-13T08:45:57.418Z,100678.72
2023-01-13T08:49:00.893Z,100685.38
2023-01-13T08:52:04.163Z,100686.03
2023-01-13T08:55:08.585Z,100694.41
2023-01-13T08:58:15.782Z,100700.06
2023-01-13T09:01:23.178Z,100686.88
2023-01-13T09:04:28.018Z,100696.16
2023-01-13T09:07:31.367Z,100692.50
2023-01-13T09:10:35.656Z,100679.44
2023-01-13T09:13:39.748Z,100687.16
2023-01-13T09:16:42.187Z,100694.56
2023-01-13T09:19:45.248Z,100684.69
2023-01-13T09:22:48.787Z,100686.94
2023-01-13T09:25:52.949Z,100689.28
2023-01-13T09:28:55.451Z,100686.75
2023-01-13T09:31:58.570Z,100694.16
2023-01-13T09:35:01.394Z,100686.53
2023-01-13T09:38:06.201Z,100693.97
2023-01-13T09:41:43.262Z,100692.56
2023-01-13T09:45:01.871Z,100686.03
2023-01-13T09:48:13.757Z,100680.87
2023-01-13T09:51:31.967Z,100685.13
2023-01-13T09:55:03.994Z,100676.06
2023-01-13T09:58:19.241Z,100683.31
2023-01-13T10:01:38.683Z,100679.97
2023-01-13T10:04:41.927Z,100670.94
2023-01-13T10:07:52.372Z,100685.56
2023-01-13T10:10:57.320Z,100670.22
2023-01-13T10:14:03.162Z,100671.25
2023-01-13T10:17:34.251Z,100675.22
2023-01-13T10:20:40.578Z,100672.66
2023-01-13T10:23:52.837Z,100667.69
2023-01-13T10:27:01.593Z,100669.28
2023-01-13T10:30:20.176Z,100672.09
2023-01-13T10:33:30.774Z,100671.63
2023-01-13T10:36:34.102Z,100676.88
2023-01-13T10:39:45.954Z,100678.19
2023-01-13T10:42:49.192Z,100671.50
2023-01-13T10:46:05.907Z,100655.66
2023-01-13T10:49:36.556Z,100650.47
2023-01-13T10:52:54.734Z,100652.25
2023-01-13T10:56:03.460Z,100649.84
2023-01-13T10:59:18.619Z,100643.19
2023-01-13T11:02:36.868Z,100633.06
2023-01-13T11:05:40.199Z,100625.44
2023-01-13T11:08:46.271Z,100625.62
2023-01-13T11:11:55.444Z,100622.84
2023-01-13T11:15:02.516Z,100626.63
2023-01-13T11:18:14.021Z,100614.53
2023-01-13T11:21:35.269Z,100606.75
2023-01-13T11:24:57.327Z,100606.56
2023-01-13T11:28:26.993Z,100603.34
2023-01-13T11:31:43.167Z,100592.03
2023-01-13T11:34:54.649Z,100589.16
2023-01-13T11:38:09.603Z,100591.72
2023-01-13T11:41:20.979Z,100586.25
2023-01-13T11:44:36.034Z,100600.56
2023-01-13T11:47:39.525Z,100593.53
2023-01-13T11:51:00.084Z,100591.44
2023-01-13T11:54:29.485Z,100588.06
2023-01-13T11:57:57.968Z,100581.72
2023-01-13T12:01:22.295Z,100569.47
2023-01-13T12:04:53.225Z,100558.69
2023-01-13T12:08:04.885Z,100552.53
2023-01-13T12:11:10.649Z,100549.44
2023-01-13T12:14:33.571Z,100526.59
2023-01-13T12:17:48.193Z,100522.19
2023-01-13T12:21:06.269Z,100512.47
2023-01-13T12:24:30.040Z,100521.09
2023-01-13T12:27:32.904Z,100506.00
2023-01-13T12:30:50.908Z,100508.34
2023-01-13T12:34:26.198Z,100510.50
2023-01-13T12:37:44.952Z,100512.44
2023-01-13T12:41:01.844Z,100519.78
2023-01-13T12:44:17.137Z,100539.09
2023-01-13T12:47:52.864Z,100519.50
2023-01-13T12:51:00.772Z,100522.50
2023-01-13T12:54:51.278Z,100521.69
2023-01-13T12:58:06.176Z,100512.38
2023-01-13T13:01:14.440Z,100514.00
2023-01-13T13:04:44.029Z,100504.75
2023-01-13T13:08:14.595Z,100513.88
2023-01-13T13:11:40.963Z,100512.94
2023-01-13T13:14:44.287Z,100518.97
2023-01-13T13:18:19.647Z,100521.63
2023-01-13T13:21:22.509Z,100526.56
2023-01-13T13:24:26.558Z,100523.09
2023-01-13T13:27:41.202Z,100539.78
2023-01-13T13:30:55.884Z,100526.16
2023-01-13T13:34:19.291Z,100529.53
2023-01-13T13:38:19.738Z,100529.63
2023-01-13T13:41:45.003Z,100527.03
2023-01-13T13:45:08.116Z,100521.09
2023-01-13T13:48:25.587Z,100512.97
2023-01-13T13:51:38.405Z,100525.63
2023-01-13T13:54:44.024Z,100521.19
2023-01-13T13:57:49.885Z,100533.56
2023-01-13T14:00:54.431Z,100542.69
2023-01-13T14:04:09.603Z,100548.22
2023-01-13T14:07:21.721Z,100551.50
2023-01-13T14:10:33.273Z,100547.41
2023-01-13T14:13:36.150Z,100543.03
2023-01-13T14:16:40.782Z,100544.91
2023-01-13T14:19:47.700Z,100550.91
2023-01-13T14:22:54.873Z,100556.50
2023-01-13T14:26:08.847Z,100550.38
2023-01-13T14:29:18.464Z,100550.56
2023-01-13T14:32:26.311Z,100543.66
2023-01-13T14:35:30.084Z,100539.75
2023-01-13T14:38:33.561Z,100530.47
2023-01-13T14:41:50.952Z,100544.59
2023-01-13T14:44:56.274Z,100541.91
2023-01-13T14:48:01.550Z,100542.19
2023-01-13T14:51:14.319Z,100550.66
2023-01-13T14:54:47.517Z,100549.75
2023-01-13T14:57:54.305Z,100539.94
2023-01-13T15:01:25.822Z,100560.47
2023-01-13T15:04:39.063Z,100555.13
2023-01-13T15:07:56.397Z,100552.00
2023-01-13T15:11:02.742Z,100543.31
2023-01-13T15:14:10.966Z,100547.91
2023-01-13T15:17:17.477Z,100549.41
2023-01-13T15:20:25.920Z,100540.62
2023-01-13T15:23:29.681Z,100544.47
2023-01-13T15:26:35.779Z,100534.06
2023-01-13T15:29:39.065Z,100537.81
2023-01-13T15:32:44.737Z,100541.09
2023-01-13T15:35:52.779Z,100535.31
2023-01-13T15:38:59.467Z,100547.03
2023-01-13T15:42:21.492Z,100554.75
2023-01-13T15:45:43.876Z,100547.88
2023-01-13T15:48:53.010Z,100549.72
2023-01-13T15:51:56.470Z,100549.91
2023-01-13T15:54:59.808Z,100552.50
2023-01-13T15:58:03.007Z,100558.41
2023-01-13T16:01:10.139Z,100572.41
2023-01-13T16:04:16.243Z,100565.44
2023-01-13T16:07:25.092Z,100567.75
2023-01-13T16:10:28.523Z,100568.13
2023-01-13T16:13:33.892Z,100568.03
2023-01-13T16:16:40.867Z,100560.75
2023-01-13T16:19:44.940Z,100559.75
2023-01-13T16:22:50.693Z,100551.19
2023-01-13T16:25:56.672Z,100560.75
2023-01-13T16:28:59.936Z,100554.69
2023-01-13T16:32:03.197Z,100554.75
2023-01-13T16:35:06.896Z,100554.75
2023-01-13T16:38:21.411Z,100556.72
2023-01-13T16:41:25.159Z,100555.84
2023-01-13T16:44:28.628Z,100558.34
2023-01-13T16:47:31.858Z,100548.69
2023-01-13T16:50:41.853Z,100555.37
2023-01-13T16:53:45.398Z,100552.59
2023-01-13T16:56:48.843Z,100545.66
2023-01-13T16:59:52.162Z,100545.13
2023-01-13T17:03:05.258Z,100544.94
2023-01-13T17:06:11.175Z,100549.22
2023-01-13T17:09:23.411Z,100552.09
2023-01-13T17:12:26.660Z,100552.25
2023-01-13T17:15:30.051Z,100553.66
2023-01-13T17:18:36.165Z,100551.09
2023-01-13T17:21:51.183Z,100548.78
2023-01-13T17:24:54.535Z,100553.78
2023-01-13T17:28:00.904Z,100559.66
2023-01-13T17:31:04.273Z,100568.13
2023-01-13T17:34:08.380Z,100571.53
2023-01-13T17:37:15.173Z,100557.97
2023-01-13T17:40:20.880Z,100565.25
2023-01-13T17:43:25.336Z,100567.16
2023-01-13T17:46:31.550Z,100574.72
2023-01-13T17:49:40.337Z,100578.09
2023-01-13T17:52:48.817Z,100574.72
2023-01-13T17:55:58.413Z,100579.91
2023-01-13T17:59:36.168Z,100573.25
2023-01-13T18:02:48.986Z,100573.41
2023-01-13T18:05:52.312Z,100571.25
2023-01-13T18:08:55.600Z,100575.44
2023-01-13T18:12:00.458Z,100577.13
2023-01-13T18:15:04.145Z,100580.97
2023-01-13T18:18:07.413Z,100580.97
2023-01-13T18:21:47.919Z,100582.69
2023-01-13T18:25:13.472Z,100593.75
2023-01-13T18:28:17.029Z,100585.28
2023-01-13T18:31:20.100Z,100591.06
2023-01-13T18:34:23.468Z,100589.41
2023-01-13T18:37:27.302Z,100585.09
2023-01-13T18:40:30.748Z,100595.47
2023-01-13T18:44:10.816Z,100595.56
2023-01-13T18:47:14.238Z,100592.09
2023-01-13T18:50:19.651Z,100590.38
2023-01-13T18:53:22.922Z,100596.53
2023-01-13T18:56:26.259Z,100595.66
2023-01-13T18:59:30.018Z,100601.72
2023-01-13T19:02:33.306Z,100598.34
2023-01-13T19:05:38.271Z,100600.00
2023-01-13T19:08:42.175Z,100605.91
2023-01-13T19:11:49.587Z,100610.19
2023-01-13T19:14:54.398Z,100604.19
2023-01-13T19:17:57.279Z,100606.87
2023-01-13T19:21:05.152Z,100605.91
2023-01-13T19:24:08.390Z,100611.19
2023-01-13T19:27:14.545Z,100611.09
2023-01-13T19:30:17.720Z,100618.66
2023-01-13T19:33:20.661Z,100627.41
2023-01-13T19:36:23.502Z,100627.22
2023-01-13T19:39:26.545Z,100626.31
2023-01-13T19:42:48.359Z,100636.69
2023-01-13T19:45:51.367Z,100634.38
2023-01-13T19:48:54.291Z,100642.03
2023-01-13T19:51:57.461Z,100642.94
2023-01-13T19:55:01.958Z,100649.81
2023-01-13T19:58:05.583Z,100658.66
2023-01-13T20:01:10.268Z,100673.28
2023-01-13T20:04:14.479Z,100688.72
2023-01-13T20:07:17.593Z,100691.41
2023-01-13T20:10:22.101Z,100684.03
2023-01-13T20:13:25.275Z,100686.78
2023-01-13T20:16:30.040Z,100674.75
2023-01-13T20:19:33.482Z,100683.12
2023-01-13T20:22:39.804Z,100674.75
2023-01-13T20:25:43.389Z,100663.72
2023-01-13T20:28:47.288Z,100671.00
2023-01-13T20:31:51.024Z,100673.72
2023-01-13T20:34:54.055Z,100664.41
2023-01-13T20:37:56.947Z,100663.38
2023-01-13T20:41:01.388Z,100652.78
2023-01-13T20:44:05.327Z,100664.13
2023-01-13T20:47:08.718Z,100651.06
2023-01-13T20:50:12.684Z,100644.28
2023-01-13T20:53:15.544Z,100642.91
2023-01-13T20:56:18.387Z,100646.69
2023-01-13T20:59:22.916Z,100657.66
2023-01-13T21:02:25.740Z,100664.13
2023-01-13T21:05:29.569Z,100677.03
2023-01-13T21:08:32.514Z,100681.75
2023-01-13T21:11:54.005Z,100677.34
2023-01-13T21:15:23.542Z,100679.16
2023-01-13T21:18:45.523Z,100671.19
2023-01-13T21:21:48.376Z,100667.72
2023-01-13T21:24:51.353Z,100654.97
2023-01-13T21:27:54.900Z,100653.09
2023-01-13T21:31:09.226Z,100648.72
2023-01-13T21:34:12.678Z,100647.13
2023-01-13T21:37:16.425Z,100646.34
2023-01-13T21:40:19.859Z,100641.16
2023-01-13T21:43:41.937Z,100642.12
2023-01-13T21:47:03.881Z,100645.31
2023-01-13T21:50:10.348Z,100630.63
2023-01-13T21:53:13.282Z,100632.56
2023-01-13T21:56:16.125Z,100631.16
2023-01-13T21:59:19.669Z,100622.59
2023-01-13T22:02:29.153Z,100627.59
2023-01-13T22:05:32.634Z,100616.25
2023-01-13T22:08:35.754Z,100623.13
2023-01-13T22:11:39.026Z,100634.19
2023-01-13T22:14:41.951Z,100638.56
2023-01-13T22:17:48.814Z,100640.91
2023-01-13T22:20:51.659Z,100669.19
2023-01-13T22:23:54.752Z,100679.81
2023-01-13T22:26:57.206Z,100709.53
2023-01-13T22:30:00.339Z,100712.72
2023-01-13T22:33:03.010Z,100714.41
2023-01-13T22:36:08.121Z,100719.19
2023-01-13T22:39:11.314Z,100727.94
2023-01-13T22:42:14.701Z,100724.44
2023-01-13T22:45:18.835Z,100732.44
2023-01-13T22:48:21.929Z,100744.28
2023-01-13T22:51:25.226Z,100749.56
2023-01-13T22:54:28.345Z,100734.12
2023-01-13T22:57:35.949Z,100743.66
2023-01-13T23:00:46.832Z,100741.09
2023-01-13T23:03:50.389Z,100729.53
2023-01-13T23:06:53.560Z,100731.31
2023-01-13T23:09:56.111Z,100720.97
2023-01-13T23:12:59.196Z,100709.62
2023-01-13T23:16:03.568Z,100694.09
2023-01-13T23:19:07.558Z,100691.81
2023-01-13T23:22:09.985Z,100681.75
2023-01-13T23:25:13.045Z,100659.44
2023-01-13T23:28:15.621Z,100648.66
2023-01-13T23:31:21.282Z,100650.97
2023-01-13T23:34:23.798Z,100654.28
2023-01-13T23:37:26.910Z,100665.28
2023-01-13T23:40:29.429Z,100675.78
2023-01-13T23:43:32.883Z,100665.19
2023-01-13T23:46:35.641Z,100668.09
2023-01-13T23:49:38.964Z,100663.63
2023-01-13T23:52:41.503Z,100657.44
2023-01-13T23:55:44.572Z,100667.13
2023-01-13T23:58:48.110Z,100660.00
